Time;durP1;ratioP1;P1;durP2;ratioP2;P2;SDS_P1;SDS_P2;PMS_P1;PMS_P2;Temp;Humidity;BMP_temperature;BMP_pressure;BME280_temperature;BME280_humidity;BME280_pressure;Samples;Min_cycle;Max_cycle;Signal;HPM_P1;HPM_P2
2023/12/09 00:00:12;;;;;;;20.87;10.40;;;2.30;99.90;;;;;;4183675;28;20459;-77
2023/12/09 00:02:14;;;;;;;18.30;9.70;;;2.30;99.90;;;;;;4181122;28;20437;-76
2023/12/09 00:04:16;;;;;;;18.20;9.77;;;2.30;99.90;;;;;;4178661;28;20455;-77
2023/12/09 00:06:19;;;;;;;18.93;9.87;;;2.30;99.90;;;;;;4177968;28;20464;-77
2023/12/09 00:08:20;;;;;;;21.43;10.00;;;2.30;99.90;;;;;;4179193;28;20480;-77
2023/12/09 00:10:22;;;;;;;20.03;9.07;;;2.30;99.90;;;;;;4178997;28;20465;-78
2023/12/09 00:12:24;;;;;;;19.23;9.93;;;2.30;99.90;;;;;;4178402;28;20214;-77
2023/12/09 00:14:27;;;;;;;21.53;10.10;;;2.30;99.90;;;;;;4179780;28;20551;-77
2023/12/09 00:16:29;;;;;;;17.47;9.20;;;2.30;99.90;;;;;;4178387;28;20507;-77
2023/12/09 00:18:31;;;;;;;20.83;10.20;;;2.30;99.90;;;;;;4178735;28;20502;-77
2023/12/09 00:20:32;;;;;;;20.60;9.73;;;2.40;99.90;;;;;;4178622;28;20479;-76
2023/12/09 00:22:34;;;;;;;18.17;9.50;;;2.40;99.90;;;;;;4178273;28;20447;-76
2023/12/09 00:24:36;;;;;;;18.80;9.63;;;2.30;99.90;;;;;;4177978;28;20202;-76
2023/12/09 00:26:38;;;;;;;18.50;9.43;;;2.40;99.90;;;;;;4181622;28;20441;-77
2023/12/09 00:28:40;;;;;;;20.17;9.00;;;2.40;99.90;;;;;;4183061;28;20474;-76
2023/12/09 00:30:43;;;;;;;18.97;10.37;;;2.40;99.90;;;;;;4181821;28;20476;-76
2023/12/09 00:32:45;;;;;;;18.73;9.87;;;2.40;99.90;;;;;;4180230;28;20464;-76
2023/12/09 00:34:46;;;;;;;16.17;8.70;;;2.40;99.90;;;;;;4180684;28;20837;-76
2023/12/09 00:36:48;;;;;;;19.73;9.73;;;2.40;99.90;;;;;;4184169;28;20449;-77
2023/12/09 00:38:50;;;;;;;18.33;9.40;;;2.50;99.90;;;;;;4178237;28;20206;-76
2023/12/09 00:40:52;;;;;;;18.60;9.40;;;2.40;99.90;;;;;;4184004;28;20477;-76
2023/12/09 00:42:54;;;;;;;19.20;9.87;;;2.50;99.90;;;;;;4177099;28;20807;-76
2023/12/09 00:44:56;;;;;;;18.13;9.17;;;2.40;99.90;;;;;;4179304;28;20480;-76
2023/12/09 00:47:01;;;;;;;17.27;9.27;;;2.50;99.90;;;;;;4185326;28;20461;-77
2023/12/09 00:49:03;;;;;;;16.73;8.77;;;2.50;99.90;;;;;;4181642;28;20456;-78
2023/12/09 00:51:06;;;;;;;18.60;9.00;;;2.50;99.90;;;;;;4179997;28;20601;-77
2023/12/09 00:53:08;;;;;;;17.50;8.90;;;2.50;99.90;;;;;;4180491;28;20443;-77
2023/12/09 00:55:11;;;;;;;16.10;9.23;;;2.50;99.90;;;;;;4183176;28;20480;-76
2023/12/09 00:57:13;;;;;;;15.27;8.20;;;2.50;99.90;;;;;;4181716;28;20444;-76
2023/12/09 00:59:15;;;;;;;20.13;10.30;;;2.60;99.90;;;;;;4180199;28;20463;-76
2023/12/09 01:01:17;;;;;;;17.40;9.10;;;2.50;99.90;;;;;;4182790;28;20440;-76
2023/12/09 01:03:20;;;;;;;17.90;9.20;;;2.50;99.90;;;;;;4181905;28;20452;-76
2023/12/09 01:05:22;;;;;;;18.77;9.23;;;2.50;99.90;;;;;;4183149;28;20515;-76
2023/12/09 01:07:24;;;;;;;19.33;8.73;;;2.50;99.90;;;;;;4173378;28;20820;-76
2023/12/09 01:09:26;;;;;;;19.20;9.70;;;2.50;99.90;;;;;;4181855;28;20523;-78
2023/12/09 01:11:28;;;;;;;18.90;8.47;;;2.50;99.90;;;;;;4179595;28;20520;-77
2023/12/09 01:13:30;;;;;;;17.67;8.80;;;2.50;99.90;;;;;;4182675;28;21003;-76
2023/12/09 01:15:32;;;;;;;16.67;8.53;;;2.50;99.90;;;;;;4181461;28;20881;-76
2023/12/09 01:17:34;;;;;;;17.23;8.37;;;2.50;99.90;;;;;;4181096;28;20456;-76
2023/12/09 01:19:37;;;;;;;16.13;9.10;;;2.60;99.90;;;;;;4178725;28;20488;-77
2023/12/09 01:21:38;;;;;;;18.87;9.33;;;2.50;99.90;;;;;;4177325;28;20511;-77
2023/12/09 01:23:40;;;;;;;19.67;9.57;;;2.50;99.90;;;;;;4181625;28;20897;-78
2023/12/09 01:25:42;;;;;;;15.17;8.20;;;2.60;99.90;;;;;;4179846;28;20198;-78
2023/12/09 01:27:44;;;;;;;15.40;8.57;;;2.60;99.90;;;;;;4181340;28;20469;-77
2023/12/09 01:29:46;;;;;;;14.80;8.47;;;2.50;99.90;;;;;;4181662;28;20910;-76
2023/12/09 01:31:47;;;;;;;15.87;8.37;;;2.60;99.90;;;;;;4183595;28;20448;-76
2023/12/09 01:33:48;;;;;;;16.17;8.63;;;2.50;99.90;;;;;;4179990;28;20916;-76
2023/12/09 01:35:52;;;;;;;18.77;8.40;;;2.50;99.90;;;;;;4174136;28;20198;-77
2023/12/09 01:37:53;;;;;;;15.27;8.23;;;2.50;99.90;;;;;;4178029;28;20507;-75
2023/12/09 01:39:55;;;;;;;17.63;8.80;;;2.50;99.90;;;;;;4185313;28;20461;-76
2023/12/09 01:41:57;;;;;;;19.47;8.23;;;2.60;99.90;;;;;;4183694;28;20444;-77
2023/12/09 01:43:59;;;;;;;17.53;8.27;;;2.60;99.90;;;;;;4182442;28;20441;-78
2023/12/09 01:46:05;;;;;;;17.50;9.10;;;2.60;99.90;;;;;;4181797;28;20495;-77
2023/12/09 01:48:08;;;;;;;15.17;8.40;;;2.50;99.90;;;;;;4189234;28;20519;-76
2023/12/09 01:50:11;;;;;;;17.93;8.87;;;2.60;99.90;;;;;;4181645;28;20464;-75
2023/12/09 01:52:14;;;;;;;16.33;7.93;;;2.60;99.90;;;;;;4184908;28;20443;-77
2023/12/09 01:54:16;;;;;;;15.70;8.30;;;2.60;99.90;;;;;;4186209;28;20518;-75
2023/12/09 01:56:21;;;;;;;13.47;7.70;;;2.60;99.90;;;;;;4183207;28;20499;-76
2023/12/09 01:58:23;;;;;;;15.43;8.10;;;2.60;99.90;;;;;;4182980;28;20452;-76
2023/12/09 02:00:25;;;;;;;18.10;8.47;;;2.60;99.90;;;;;;4182547;28;20503;-78
2023/12/09 02:02:27;;;;;;;18.63;9.10;;;2.60;99.90;;;;;;4186254;28;20941;-76
2023/12/09 02:04:29;;;;;;;15.00;8.03;;;2.60;99.90;;;;;;4180589;28;20532;-77
2023/12/09 02:06:31;;;;;;;15.07;8.37;;;2.60;99.90;;;;;;4182874;28;20544;-76
2023/12/09 02:08:35;;;;;;;17.80;8.73;;;2.60;99.90;;;;;;4180314;28;20441;-75
2023/12/09 02:10:38;;;;;;;16.90;8.57;;;2.50;99.90;;;;;;4179546;28;20497;-75
2023/12/09 02:12:48;;;;;;;19.70;8.63;;;2.50;99.90;;;;;;4181932;28;20488;-75
2023/12/09 02:14:59;;;;;;;16.47;8.97;;;2.50;99.90;;;;;;4183712;28;20509;-75
2023/12/09 02:17:08;;;;;;;17.10;7.90;;;2.60;99.90;;;;;;4187599;28;20474;-76
2023/12/09 02:19:13;;;;;;;17.37;8.17;;;2.60;99.90;;;;;;4196802;28;20443;-76
2023/12/09 02:21:15;;;;;;;16.03;8.50;;;2.60;99.90;;;;;;4188539;28;20432;-76
2023/12/09 02:23:18;;;;;;;17.10;8.20;;;2.60;99.90;;;;;;4187633;28;20461;-76
2023/12/09 02:25:20;;;;;;;16.53;8.20;;;2.60;99.90;;;;;;4183392;28;20483;-76
2023/12/09 02:27:42;;;;;;;19.17;8.63;;;2.50;99.90;;;;;;4182135;28;20566;-77
2023/12/09 02:30:00;;;;;;;17.20;8.93;;;2.60;99.90;;;;;;4181479;28;20477;-75
2023/12/09 02:32:06;;;;;;;15.07;8.10;;;2.60;99.90;;;;;;4183035;28;20514;-76
2023/12/09 02:34:09;;;;;;;15.97;8.03;;;2.60;99.90;;;;;;4179252;28;20471;-75
2023/12/09 02:36:16;;;;;;;16.33;8.43;;;2.60;99.90;;;;;;4180722;28;20870;-76
2023/12/09 02:38:20;;;;;;;18.13;8.77;;;2.60;99.90;;;;;;4183105;28;20455;-75
2023/12/09 02:40:24;;;;;;;16.77;8.40;;;2.60;99.90;;;;;;4183505;28;20523;-76
2023/12/09 02:42:27;;;;;;;20.10;9.40;;;2.60;99.90;;;;;;4180958;28;20475;-75
2023/12/09 02:44:29;;;;;;;14.37;7.90;;;2.60;99.90;;;;;;4184428;28;20440;-75
2023/12/09 02:46:30;;;;;;;15.53;8.50;;;2.60;99.90;;;;;;4183186;28;20803;-76
2023/12/09 02:48:32;;;;;;;16.77;8.50;;;2.60;99.90;;;;;;4184630;28;20498;-76
2023/12/09 02:50:36;;;;;;;17.83;8.40;;;2.60;99.90;;;;;;4185708;28;20231;-77
2023/12/09 02:52:38;;;;;;;19.70;8.97;;;2.60;99.90;;;;;;4187519;28;20494;-75
2023/12/09 02:54:41;;;;;;;13.47;8.13;;;2.60;99.90;;;;;;4183733;28;20531;-75
2023/12/09 02:56:43;;;;;;;18.87;8.77;;;2.60;99.90;;;;;;4184861;28;20985;-76
2023/12/09 02:58:45;;;;;;;17.90;8.50;;;2.60;99.90;;;;;;4180658;28;20599;-76
2023/12/09 03:00:45;;;;;;;24.37;9.40;;;2.60;99.90;;;;;;4180967;28;20479;-76
2023/12/09 03:02:47;;;;;;;16.27;8.37;;;2.60;99.90;;;;;;4180035;28;20441;-75
2023/12/09 03:04:49;;;;;;;16.47;8.97;;;2.70;99.90;;;;;;4179889;28;20199;-77
2023/12/09 03:06:51;;;;;;;15.83;8.30;;;2.70;99.90;;;;;;4186224;28;20855;-75
2023/12/09 03:08:53;;;;;;;20.27;8.87;;;2.70;99.90;;;;;;4188930;28;20494;-77
2023/12/09 03:10:56;;;;;;;20.73;9.57;;;2.70;99.90;;;;;;4182582;28;20464;-77
2023/12/09 03:12:59;;;;;;;15.10;8.17;;;2.70;99.90;;;;;;4180028;28;20491;-76
2023/12/09 03:15:05;;;;;;;17.13;8.60;;;2.70;99.90;;;;;;4182566;28;20485;-76
2023/12/09 03:17:07;;;;;;;16.13;8.93;;;2.70;99.90;;;;;;4180974;28;20460;-77
2023/12/09 03:19:08;;;;;;;21.97;8.53;;;2.70;99.90;;;;;;4182725;28;20441;-76
2023/12/09 03:21:15;;;;;;;16.90;8.53;;;2.70;99.90;;;;;;4179270;28;20444;-77
2023/12/09 03:23:17;;;;;;;19.30;8.33;;;2.70;99.90;;;;;;4179971;28;20700;-76
2023/12/09 03:25:18;;;;;;;16.60;8.27;;;2.70;99.90;;;;;;4181030;28;20849;-76
2023/12/09 03:27:21;;;;;;;18.07;8.87;;;2.70;99.90;;;;;;4182123;28;20453;-76
2023/12/09 03:29:23;;;;;;;14.53;8.43;;;2.70;99.90;;;;;;4179370;28;20280;-75
2023/12/09 03:31:25;;;;;;;19.57;9.27;;;2.70;99.90;;;;;;4185415;28;20499;-76
2023/12/09 03:33:27;;;;;;;18.87;8.20;;;2.70;99.90;;;;;;4181134;28;20437;-75
2023/12/09 03:35:29;;;;;;;18.47;8.17;;;2.70;99.90;;;;;;4181947;28;20484;-76
2023/12/09 03:37:31;;;;;;;17.13;8.23;;;2.70;99.90;;;;;;4180089;28;20441;-76
2023/12/09 03:39:32;;;;;;;18.57;8.47;;;2.70;99.90;;;;;;4177170;28;20472;-75
2023/12/09 03:41:34;;;;;;;16.87;8.00;;;2.80;99.90;;;;;;4180011;28;20854;-77
2023/12/09 03:43:37;;;;;;;13.80;7.50;;;2.80;99.90;;;;;;4178771;28;20772;-76
2023/12/09 03:45:41;;;;;;;16.07;8.13;;;2.80;99.90;;;;;;4183250;28;20475;-75
2023/12/09 03:47:44;;;;;;;17.80;8.37;;;2.80;99.90;;;;;;4179279;28;20510;-76
2023/12/09 03:49:46;;;;;;;15.47;8.47;;;2.70;99.90;;;;;;4182808;28;21045;-77
2023/12/09 03:51:48;;;;;;;18.27;8.20;;;2.80;99.90;;;;;;4179134;28;20808;-78
2023/12/09 03:53:49;;;;;;;17.17;8.40;;;2.70;99.90;;;;;;4181176;28;20449;-78
2023/12/09 03:55:50;;;;;;;19.13;8.90;;;2.70;99.90;;;;;;4180663;28;20490;-76
2023/12/09 03:57:53;;;;;;;19.63;8.50;;;2.80;99.90;;;;;;4182009;28;20453;-75
2023/12/09 03:59:56;;;;;;;19.17;8.67;;;2.80;99.90;;;;;;4182165;28;21049;-76
2023/12/09 04:01:58;;;;;;;16.00;8.20;;;2.80;99.90;;;;;;4181022;28;20465;-78
2023/12/09 04:03:59;;;;;;;22.70;8.40;;;2.80;99.90;;;;;;4179193;28;20448;-75
2023/12/09 04:06:01;;;;;;;19.10;9.60;;;2.80;99.90;;;;;;4180021;28;20452;-75
2023/12/09 04:08:03;;;;;;;19.30;8.80;;;2.80;99.90;;;;;;4180312;28;20225;-76
2023/12/09 04:10:06;;;;;;;17.17;8.60;;;2.80;99.90;;;;;;4181988;28;20468;-75
2023/12/09 04:12:08;;;;;;;19.17;8.17;;;2.90;99.90;;;;;;4176953;28;20477;-76
2023/12/09 04:14:08;;;;;;;22.27;8.80;;;2.90;99.90;;;;;;4181663;28;20518;-76
2023/12/09 04:16:12;;;;;;;15.47;7.87;;;2.90;99.90;;;;;;4178110;28;20480;-77
2023/12/09 04:18:14;;;;;;;18.67;8.33;;;2.90;99.90;;;;;;4181678;28;20244;-75
2023/12/09 04:20:17;;;;;;;17.33;8.57;;;2.90;99.90;;;;;;4179223;28;20508;-75
2023/12/09 04:22:19;;;;;;;21.67;8.13;;;3.10;99.90;;;;;;4186211;28;20531;-75
2023/12/09 04:24:21;;;;;;;15.97;8.47;;;3.00;99.90;;;;;;4188811;28;20488;-75
2023/12/09 04:26:25;;;;;;;16.87;7.83;;;2.90;99.90;;;;;;4183669;28;20965;-76
2023/12/09 04:28:26;;;;;;;17.57;8.43;;;2.90;99.90;;;;;;4178998;28;20943;-75
2023/12/09 04:30:28;;;;;;;18.93;8.50;;;2.90;99.90;;;;;;4180296;28;20456;-76
2023/12/09 04:32:32;;;;;;;18.87;8.67;;;2.90;99.90;;;;;;4177826;28;20828;-76
2023/12/09 04:34:35;;;;;;;19.80;8.60;;;2.90;99.90;;;;;;4177030;28;20445;-76
2023/12/09 04:36:37;;;;;;;18.20;9.00;;;2.90;99.90;;;;;;4181332;28;20499;-77
2023/12/09 04:38:39;;;;;;;19.87;8.53;;;2.90;99.90;;;;;;4191200;28;20445;-76
2023/12/09 04:40:40;;;;;;;19.13;8.27;;;2.90;99.90;;;;;;4192388;28;20489;-75
2023/12/09 04:42:41;;;;;;;17.93;8.63;;;2.90;99.90;;;;;;4181591;28;20445;-76
2023/12/09 04:44:43;;;;;;;18.60;8.53;;;2.90;99.90;;;;;;4184873;28;20741;-76
2023/12/09 04:46:45;;;;;;;16.23;7.87;;;2.90;99.90;;;;;;4181350;28;20449;-76
2023/12/09 04:48:48;;;;;;;18.40;8.57;;;2.90;99.90;;;;;;4178007;28;20449;-75
2023/12/09 04:50:50;;;;;;;19.13;8.87;;;2.90;99.90;;;;;;4179402;28;20976;-77
2023/12/09 04:52:52;;;;;;;20.80;9.20;;;2.90;99.90;;;;;;4178468;28;20499;-76
2023/12/09 04:54:54;;;;;;;18.00;8.70;;;2.90;99.90;;;;;;4183834;28;20503;-76
2023/12/09 04:56:56;;;;;;;16.87;8.40;;;2.90;99.90;;;;;;4178051;28;20873;-75
2023/12/09 04:58:58;;;;;;;20.23;9.13;;;2.90;99.90;;;;;;4182480;28;20480;-76
2023/12/09 05:01:02;;;;;;;17.53;7.93;;;3.00;99.90;;;;;;4176825;28;20461;-77
2023/12/09 05:03:04;;;;;;;16.57;8.00;;;3.00;99.90;;;;;;4185171;28;20487;-77
2023/12/09 05:05:08;;;;;;;18.50;8.67;;;3.00;99.90;;;;;;4179451;28;20487;-77
2023/12/09 05:07:10;;;;;;;18.30;8.47;;;3.00;99.90;;;;;;4178611;28;20461;-77
2023/12/09 05:09:13;;;;;;;16.20;7.90;;;3.00;99.90;;;;;;4182065;28;20454;-78
2023/12/09 05:11:15;;;;;;;15.77;7.83;;;3.00;99.90;;;;;;4181727;28;20558;-76
2023/12/09 05:13:17;;;;;;;18.27;8.03;;;3.00;99.90;;;;;;4183827;28;20513;-76
2023/12/09 05:15:19;;;;;;;16.30;8.27;;;3.00;99.90;;;;;;4185652;28;20802;-76
2023/12/09 05:17:21;;;;;;;19.00;8.27;;;3.00;99.90;;;;;;4181884;28;20450;-76
2023/12/09 05:19:23;;;;;;;18.83;8.33;;;3.00;99.90;;;;;;4183475;28;20471;-75
2023/12/09 05:21:27;;;;;;;13.37;7.43;;;2.90;99.90;;;;;;4187471;28;20483;-76
2023/12/09 05:23:29;;;;;;;14.50;7.70;;;3.10;99.90;;;;;;4178378;28;20551;-76
2023/12/09 05:25:31;;;;;;;15.27;7.63;;;3.00;99.90;;;;;;4181222;28;20924;-76
2023/12/09 05:27:32;;;;;;;21.23;8.00;;;3.00;99.90;;;;;;4182757;28;20858;-76
2023/12/09 05:29:34;;;;;;;16.70;7.60;;;3.00;99.90;;;;;;4181150;28;20461;-76
2023/12/09 05:31:36;;;;;;;14.07;7.57;;;3.00;99.90;;;;;;4186224;28;20506;-76
2023/12/09 05:33:38;;;;;;;16.63;8.10;;;2.90;99.90;;;;;;4184949;28;20453;-76
2023/12/09 05:35:40;;;;;;;16.20;8.07;;;2.90;99.90;;;;;;4183500;28;20484;-76
2023/12/09 05:37:43;;;;;;;15.57;7.27;;;2.90;99.90;;;;;;4184905;28;20450;-76
2023/12/09 05:39:44;;;;;;;13.03;7.10;;;2.90;99.90;;;;;;4183425;28;20960;-77
2023/12/09 05:41:46;;;;;;;14.10;7.20;;;2.90;99.90;;;;;;4185096;28;20514;-76
2023/12/09 05:43:47;;;;;;;17.07;7.43;;;2.90;99.90;;;;;;4184112;28;20269;-77
2023/12/09 05:45:49;;;;;;;15.50;7.00;;;3.00;99.90;;;;;;4183508;28;20989;-76
2023/12/09 05:47:51;;;;;;;15.03;6.97;;;2.90;99.90;;;;;;4178822;28;20210;-76
2023/12/09 05:49:52;;;;;;;16.17;6.90;;;2.90;99.90;;;;;;4186032;28;20860;-77
2023/12/09 05:51:54;;;;;;;15.63;7.30;;;3.00;99.90;;;;;;4181556;28;20457;-77
2023/12/09 05:53:58;;;;;;;18.70;7.87;;;3.00;99.90;;;;;;4181441;28;20452;-76
2023/12/09 05:56:00;;;;;;;13.67;6.73;;;3.00;99.90;;;;;;4185905;28;20480;-77
2023/12/09 05:58:02;;;;;;;15.70;6.67;;;3.00;99.90;;;;;;4185146;28;20446;-77
2023/12/09 06:00:06;;;;;;;13.13;6.73;;;3.00;99.90;;;;;;4177745;28;20997;-76
2023/12/09 06:02:08;;;;;;;16.40;6.70;;;3.00;99.90;;;;;;4180755;28;20483;-77
2023/12/09 06:04:10;;;;;;;13.37;6.30;;;3.00;99.90;;;;;;4178625;28;20508;-77
2023/12/09 06:06:11;;;;;;;17.40;6.80;;;3.00;99.90;;;;;;4181079;28;20940;-77
2023/12/09 06:08:13;;;;;;;12.60;6.50;;;3.00;99.90;;;;;;4182716;28;21138;-76
2023/12/09 06:10:16;;;;;;;15.90;7.00;;;3.00;99.90;;;;;;4194515;28;21057;-76
2023/12/09 06:12:18;;;;;;;14.27;6.13;;;3.10;99.90;;;;;;4177076;28;22326;-76
2023/12/09 06:14:20;;;;;;;19.40;6.57;;;3.10;99.90;;;;;;4192283;28;20504;-76
2023/12/09 06:16:22;;;;;;;14.90;6.47;;;3.10;99.90;;;;;;4183937;28;20991;-77
2023/12/09 06:18:24;;;;;;;12.20;6.13;;;3.10;99.90;;;;;;4174352;28;20810;-77
2023/12/09 06:20:26;;;;;;;12.73;5.93;;;3.10;99.90;;;;;;4180425;28;21033;-76
2023/12/09 06:22:28;;;;;;;13.57;6.00;;;3.10;99.90;;;;;;4178021;28;20809;-76
2023/12/09 06:24:30;;;;;;;11.90;5.73;;;3.10;99.90;;;;;;4181983;28;20446;-78
2023/12/09 06:26:32;;;;;;;13.90;5.83;;;3.10;99.90;;;;;;4184902;28;20440;-76
2023/12/09 06:28:35;;;;;;;17.23;6.10;;;3.10;99.90;;;;;;4181762;28;20862;-77
2023/12/09 06:30:37;;;;;;;13.00;5.93;;;3.10;99.90;;;;;;4177346;28;20702;-76
2023/12/09 06:32:41;;;;;;;10.67;5.67;;;3.10;99.90;;;;;;4186326;28;20500;-77
2023/12/09 06:34:43;;;;;;;13.83;6.30;;;3.10;99.90;;;;;;4187260;28;20798;-75
2023/12/09 06:36:44;;;;;;;14.70;6.17;;;3.10;99.90;;;;;;4184165;28;20493;-76
2023/12/09 06:38:46;;;;;;;12.53;6.23;;;3.10;99.90;;;;;;4181430;28;20457;-76
2023/12/09 06:40:48;;;;;;;15.47;5.90;;;3.10;99.90;;;;;;4181485;28;20230;-76
2023/12/09 06:42:51;;;;;;;16.13;6.40;;;3.20;99.90;;;;;;4180534;28;20511;-76
2023/12/09 06:44:52;;;;;;;15.23;6.00;;;3.10;99.90;;;;;;4181708;28;20933;-76
2023/12/09 06:46:54;;;;;;;13.23;6.13;;;3.10;99.90;;;;;;4182531;28;20463;-77
2023/12/09 06:48:55;;;;;;;14.57;6.50;;;3.10;99.90;;;;;;4179300;28;20469;-76
2023/12/09 06:50:57;;;;;;;9.33;5.47;;;3.10;99.90;;;;;;4180703;28;20499;-77
2023/12/09 06:53:01;;;;;;;14.20;5.60;;;3.10;99.90;;;;;;4179748;28;20217;-76
2023/12/09 06:55:03;;;;;;;85.27;20.97;;;3.10;99.90;;;;;;4179764;28;20474;-76
2023/12/09 06:57:05;;;;;;;35.83;10.07;;;3.10;99.90;;;;;;4179825;28;20568;-76
2023/12/09 06:59:08;;;;;;;13.77;6.63;;;3.20;99.90;;;;;;4189237;28;20457;-77
2023/12/09 07:01:18;;;;;;;13.37;5.83;;;3.20;99.90;;;;;;4184143;28;20479;-76
2023/12/09 07:03:20;;;;;;;12.77;6.43;;;3.20;99.90;;;;;;4183514;28;20441;-76
2023/12/09 07:05:22;;;;;;;12.00;5.47;;;3.30;99.90;;;;;;4184228;28;20983;-76
2023/12/09 07:07:24;;;;;;;16.03;5.90;;;3.30;99.90;;;;;;4189988;28;20455;-76
2023/12/09 07:09:25;;;;;;;14.20;6.03;;;3.30;99.90;;;;;;4183342;28;20469;-78
2023/12/09 07:11:28;;;;;;;13.77;5.27;;;3.30;99.90;;;;;;4202714;28;20425;-78
2023/12/09 07:13:29;;;;;;;10.67;5.73;;;3.30;99.90;;;;;;4200118;28;20231;-76
2023/12/09 07:15:33;;;;;;;13.50;5.17;;;3.30;99.90;;;;;;4199740;28;20439;-77
2023/12/09 07:17:35;;;;;;;10.53;5.50;;;3.30;99.90;;;;;;4192153;28;20545;-76
2023/12/09 07:19:36;;;;;;;10.57;5.17;;;3.30;99.90;;;;;;4179213;28;21281;-76
2023/12/09 07:21:39;;;;;;;10.40;4.73;;;3.30;99.90;;;;;;4187708;28;20476;-77
2023/12/09 07:23:41;;;;;;;12.20;5.13;;;3.40;99.90;;;;;;4184144;28;20450;-76
2023/12/09 07:25:43;;;;;;;8.33;4.90;;;3.40;99.90;;;;;;4181542;28;21094;-77
2023/12/09 07:27:45;;;;;;;11.87;4.93;;;3.40;99.90;;;;;;4179991;28;20498;-77
2023/12/09 07:29:47;;;;;;;17.30;5.77;;;3.40;99.90;;;;;;4174844;28;20462;-77
2023/12/09 07:31:50;;;;;;;11.07;5.60;;;3.40;99.90;;;;;;4189029;28;20442;-77
2023/12/09 07:33:53;;;;;;;11.57;5.47;;;3.40;99.90;;;;;;4183556;28;20499;-77
2023/12/09 07:35:54;;;;;;;9.83;5.30;;;3.40;99.90;;;;;;4183142;28;20530;-78
2023/12/09 07:37:57;;;;;;;12.07;5.00;;;3.40;99.90;;;;;;4180535;28;20448;-77
2023/12/09 07:39:59;;;;;;;9.63;4.73;;;3.60;99.90;;;;;;4180779;28;20558;-77
2023/12/09 07:42:01;;;;;;;14.53;5.00;;;3.40;99.90;;;;;;4178892;28;20438;-78
2023/12/09 07:44:02;;;;;;;9.77;4.97;;;3.40;99.90;;;;;;4177554;28;20515;-78
2023/12/09 07:46:04;;;;;;;8.73;4.60;;;3.40;99.90;;;;;;4180586;28;20437;-78
2023/12/09 07:48:07;;;;;;;8.27;4.60;;;3.40;99.90;;;;;;4184068;28;20202;-78
2023/12/09 07:50:11;;;;;;;8.47;4.70;;;3.40;99.90;;;;;;4181477;28;20462;-78
2023/12/09 07:52:13;;;;;;;9.73;4.77;;;3.50;99.90;;;;;;4184182;28;20940;-78
2023/12/09 07:54:15;;;;;;;9.60;4.60;;;3.50;99.90;;;;;;4183158;28;20442;-77
2023/12/09 07:56:17;;;;;;;9.33;4.20;;;3.50;99.90;;;;;;4181516;28;20474;-79
2023/12/09 07:58:19;;;;;;;11.43;4.93;;;3.50;99.90;;;;;;4179464;28;20466;-78
2023/12/09 08:00:21;;;;;;;14.67;5.47;;;3.50;99.90;;;;;;4180213;28;20469;-78
2023/12/09 08:02:22;;;;;;;15.00;5.17;;;3.60;99.90;;;;;;4181034;28;20486;-79
2023/12/09 08:04:26;;;;;;;11.23;4.53;;;3.60;99.90;;;;;;4177548;28;20535;-79
2023/12/09 08:06:27;;;;;;;14.80;5.70;;;3.60;99.90;;;;;;4177166;28;20208;-77
2023/12/09 08:08:29;;;;;;;12.07;4.90;;;3.60;99.90;;;;;;4181173;28;20430;-77
2023/12/09 08:10:31;;;;;;;8.23;4.17;;;3.60;99.90;;;;;;4178841;28;20470;-77
2023/12/09 08:12:33;;;;;;;9.33;4.57;;;3.60;99.90;;;;;;4180765;28;20438;-77
2023/12/09 08:14:35;;;;;;;10.77;4.50;;;3.70;99.90;;;;;;4180369;28;20454;-77
2023/12/09 08:16:37;;;;;;;10.67;4.37;;;3.70;99.90;;;;;;4179807;28;20469;-77
2023/12/09 08:18:39;;;;;;;9.07;4.57;;;3.70;99.90;;;;;;4183603;28;20960;-78
2023/12/09 08:20:42;;;;;;;9.47;4.90;;;3.70;99.90;;;;;;4183948;28;20528;-78
2023/12/09 08:22:45;;;;;;;11.20;5.10;;;3.70;99.90;;;;;;4181808;28;20458;-77
2023/12/09 08:24:47;;;;;;;9.20;4.63;;;3.80;99.90;;;;;;4184546;28;20524;-77
2023/12/09 08:26:49;;;;;;;7.87;4.40;;;3.70;99.90;;;;;;4180883;28;20512;-77
2023/12/09 08:28:50;;;;;;;8.83;4.80;;;3.80;99.90;;;;;;4176295;28;21005;-79
2023/12/09 08:30:52;;;;;;;9.80;4.70;;;3.80;99.90;;;;;;4184721;28;20473;-77
2023/12/09 08:32:54;;;;;;;11.33;4.53;;;3.80;99.90;;;;;;4185044;28;20501;-77
2023/12/09 08:34:56;;;;;;;10.50;4.43;;;3.80;99.90;;;;;;4180453;28;20457;-78
2023/12/09 08:37:00;;;;;;;9.67;4.73;;;3.80;99.90;;;;;;4184870;28;20889;-77
2023/12/09 08:39:02;;;;;;;11.60;5.20;;;3.90;99.90;;;;;;4173174;28;20453;-77
2023/12/09 08:41:04;;;;;;;8.43;4.80;;;3.90;99.90;;;;;;4180975;28;20509;-78
2023/12/09 08:43:06;;;;;;;11.17;4.97;;;3.90;99.90;;;;;;4182425;28;20562;-77
2023/12/09 08:45:09;;;;;;;9.77;4.67;;;3.90;99.90;;;;;;4178329;28;20955;-77
2023/12/09 08:47:11;;;;;;;12.03;5.10;;;3.90;99.90;;;;;;4180418;28;20453;-77
2023/12/09 08:49:13;;;;;;;10.10;4.80;;;3.90;99.90;;;;;;4180043;28;20449;-76
2023/12/09 08:51:15;;;;;;;10.83;5.47;;;3.90;99.90;;;;;;4186802;28;20499;-77
2023/12/09 08:53:18;;;;;;;13.33;5.63;;;4.00;99.90;;;;;;4184385;28;20450;-77
2023/12/09 08:55:21;;;;;;;12.10;5.47;;;4.00;99.90;;;;;;4187370;28;20454;-77
2023/12/09 08:57:23;;;;;;;12.03;5.93;;;4.00;99.90;;;;;;4186317;28;20488;-78
2023/12/09 08:59:25;;;;;;;11.07;5.70;;;4.00;99.90;;;;;;4184213;28;20461;-77
2023/12/09 09:01:27;;;;;;;12.50;5.30;;;4.00;99.90;;;;;;4184191;28;20941;-78
2023/12/09 09:03:29;;;;;;;10.07;5.03;;;4.00;99.90;;;;;;4185437;28;20446;-78
2023/12/09 09:05:31;;;;;;;10.40;4.77;;;4.00;99.90;;;;;;4190654;28;20442;-79
2023/12/09 09:07:36;;;;;;;11.63;4.93;;;4.10;99.90;;;;;;4187631;28;20445;-78
2023/12/09 09:09:40;;;;;;;9.80;4.37;;;4.10;99.90;;;;;;4185612;28;20970;-78
2023/12/09 09:11:42;;;;;;;7.90;5.00;;;4.10;99.90;;;;;;4182553;28;21017;-78
2023/12/09 09:13:44;;;;;;;8.30;4.60;;;4.20;99.90;;;;;;4183164;28;20470;-78
2023/12/09 09:15:45;;;;;;;10.60;4.53;;;4.20;99.90;;;;;;4183782;28;20454;-77
2023/12/09 09:17:46;;;;;;;9.23;4.53;;;4.20;99.90;;;;;;4189466;28;21080;-77
2023/12/09 09:19:48;;;;;;;9.97;4.50;;;4.30;99.90;;;;;;4187801;28;20769;-78
2023/12/09 09:21:50;;;;;;;11.47;4.80;;;4.30;99.90;;;;;;4188373;28;20497;-78
2023/12/09 09:23:52;;;;;;;11.70;4.80;;;4.40;99.90;;;;;;4182979;28;20433;-78
2023/12/09 09:25:56;;;;;;;8.63;4.57;;;4.40;99.90;;;;;;4181163;28;20448;-78
2023/12/09 09:27:58;;;;;;;9.30;4.60;;;4.40;99.90;;;;;;4186962;28;20523;-78
2023/12/09 09:30:00;;;;;;;6.13;3.53;;;4.40;99.90;;;;;;4194488;28;20552;-78
2023/12/09 09:32:02;;;;;;;7.97;4.17;;;4.50;99.90;;;;;;4197730;28;20451;-77
2023/12/09 09:34:04;;;;;;;7.20;4.10;;;4.60;99.90;;;;;;4191547;28;20473;-77
2023/12/09 09:36:07;;;;;;;7.60;4.33;;;4.60;99.90;;;;;;4186793;28;20459;-76
2023/12/09 09:38:09;;;;;;;9.17;3.80;;;4.70;99.90;;;;;;4185333;28;20478;-75
2023/12/09 09:40:12;;;;;;;7.63;3.57;;;4.70;99.90;;;;;;4189313;28;20492;-74
2023/12/09 09:42:23;;;;;;;6.47;3.67;;;4.70;99.90;;;;;;4182024;28;20543;-74
2023/12/09 09:44:27;;;;;;;6.57;3.63;;;4.70;99.90;;;;;;4194657;28;20458;-76
2023/12/09 09:46:30;;;;;;;8.57;3.57;;;4.70;99.90;;;;;;4180100;28;20543;-77
2023/12/09 09:48:35;;;;;;;8.67;3.60;;;4.70;99.90;;;;;;4184040;28;20612;-77
2023/12/09 09:50:42;;;;;;;6.20;3.60;;;4.70;99.90;;;;;;4181437;28;20467;-75
2023/12/09 09:52:44;;;;;;;6.03;3.53;;;4.70;99.90;;;;;;4187748;28;20821;-78
2023/12/09 09:54:46;;;;;;;10.63;4.53;;;4.70;99.90;;;;;;4179351;28;20463;-78
2023/12/09 09:56:58;;;;;;;8.40;4.17;;;4.80;99.90;;;;;;4180374;28;20471;-79
2023/12/09 09:59:01;;;;;;;8.90;4.33;;;4.70;99.90;;;;;;4178207;28;20539;-78
2023/12/09 10:01:05;;;;;;;6.97;3.80;;;4.80;99.90;;;;;;4182550;28;20487;-78
2023/12/09 10:03:07;;;;;;;11.50;4.27;;;4.80;99.90;;;;;;4176426;28;20502;-78
2023/12/09 10:05:08;;;;;;;12.47;4.37;;;4.80;99.90;;;;;;4184219;28;20451;-78
2023/12/09 10:07:11;;;;;;;7.87;4.00;;;4.80;99.90;;;;;;4182815;28;20424;-77
2023/12/09 10:09:13;;;;;;;6.53;3.27;;;4.90;99.90;;;;;;4187409;28;20470;-78
2023/12/09 10:11:15;;;;;;;6.53;3.57;;;4.90;99.90;;;;;;4177724;28;20454;-77
2023/12/09 10:13:16;;;;;;;9.03;3.73;;;4.90;99.90;;;;;;4181078;28;20463;-78
2023/12/09 10:15:21;;;;;;;6.13;3.60;;;4.90;99.90;;;;;;4180918;28;20534;-77
2023/12/09 10:17:24;;;;;;;5.43;3.27;;;4.90;99.90;;;;;;4183466;28;20890;-77
2023/12/09 10:19:26;;;;;;;7.83;3.77;;;4.90;99.90;;;;;;4181536;28;20478;-77
2023/12/09 10:21:28;;;;;;;7.90;3.30;;;5.00;99.90;;;;;;4187232;28;20454;-77
2023/12/09 10:23:30;;;;;;;5.93;3.60;;;5.00;99.90;;;;;;4180705;28;20455;-76
2023/12/09 10:25:32;;;;;;;7.33;3.60;;;5.00;99.90;;;;;;4173430;28;20454;-77
2023/12/09 10:27:34;;;;;;;6.83;3.97;;;5.00;99.90;;;;;;4180459;28;20460;-76
2023/12/09 10:29:37;;;;;;;7.47;3.67;;;5.00;99.90;;;;;;4182560;28;20460;-77
2023/12/09 10:31:41;;;;;;;5.77;3.30;;;5.00;99.90;;;;;;4180609;28;20440;-77
2023/12/09 10:33:44;;;;;;;6.50;3.57;;;5.10;99.90;;;;;;4179658;28;20463;-79
2023/12/09 10:35:46;;;;;;;6.10;3.03;;;5.10;99.90;;;;;;4182101;28;20517;-78
2023/12/09 10:37:49;;;;;;;4.90;3.13;;;5.20;99.90;;;;;;4181167;28;20488;-77